createdAt,value
2018-09-18T00:00:24.592Z,9.90
2018-09-18T00:02:53.334Z,9.80
2018-09-18T00:05:22.131Z,10.37
2018-09-18T00:07:50.937Z,10.47
2018-09-18T00:10:19.722Z,10.20
2018-09-18T00:12:48.525Z,9.70
2018-09-18T00:15:17.351Z,10.57
2018-09-18T00:17:46.112Z,11.10
2018-09-18T00:20:14.960Z,9.20
2018-09-18T00:22:43.783Z,9.30
2018-09-18T00:25:12.574Z,9.83
2018-09-18T00:27:41.396Z,8.40
2018-09-18T00:30:10.197Z,9.07
2018-09-18T00:32:39.380Z,11.17
2018-09-18T00:35:08.168Z,10.30
2018-09-18T00:37:36.909Z,11.77
2018-09-18T00:40:05.936Z,9.53
2018-09-18T00:42:34.748Z,8.63
2018-09-18T00:45:03.606Z,11.00
2018-09-18T00:47:32.380Z,11.80
2018-09-18T00:50:01.170Z,11.57
2018-09-18T00:52:29.913Z,13.13
2018-09-18T00:54:59.183Z,13.00
2018-09-18T00:57:28.017Z,11.40
2018-09-18T00:59:56.784Z,10.77
2018-09-18T01:02:25.620Z,11.17
2018-09-18T01:04:54.913Z,11.20
2018-09-18T01:07:23.806Z,11.33
2018-09-18T01:09:52.601Z,11.80
2018-09-18T01:12:21.389Z,9.60
2018-09-18T01:14:50.246Z,11.80
2018-09-18T01:17:19.020Z,12.30
2018-09-18T01:19:47.809Z,13.57
2018-09-18T01:22:16.589Z,10.40
2018-09-18T01:24:45.348Z,12.03
2018-09-18T01:27:14.180Z,12.07
2018-09-18T01:29:43.159Z,13.63
2018-09-18T01:32:11.969Z,12.10
2018-09-18T01:34:40.794Z,13.93
2018-09-18T01:37:09.535Z,11.40
2018-09-18T01:39:38.317Z,12.10
2018-09-18T01:42:07.116Z,15.60
2018-09-18T01:44:36.023Z,15.30
2018-09-18T01:47:04.863Z,14.47
2018-09-18T01:49:33.639Z,13.97
2018-09-18T01:52:02.463Z,15.90
2018-09-18T01:54:31.530Z,16.30
2018-09-18T01:57:00.407Z,16.50
2018-09-18T01:59:29.255Z,16.00
2018-09-18T02:01:58.030Z,16.03
2018-09-18T02:04:26.817Z,16.13
2018-09-18T02:06:55.631Z,17.80
2018-09-18T02:09:24.418Z,15.07
2018-09-18T02:11:53.210Z,13.83
2018-09-18T02:14:22.019Z,15.30
2018-09-18T02:16:50.795Z,16.33
2018-09-18T02:19:19.605Z,16.67
2018-09-18T02:21:48.399Z,13.40
2018-09-18T02:24:17.161Z,16.53
2018-09-18T02:26:45.990Z,16.80
2018-09-18T02:29:14.758Z,16.67
2018-09-18T02:31:43.521Z,14.20
2018-09-18T02:34:12.282Z,17.53
2018-09-18T02:36:41.056Z,19.30
2018-09-18T02:39:11.654Z,17.13
2018-09-18T02:41:40.812Z,17.53
2018-09-18T02:44:09.624Z,14.27
2018-09-18T02:46:38.458Z,19.30
2018-09-18T02:49:07.411Z,15.40
2018-09-18T02:51:36.207Z,20.50
2018-09-18T02:54:05.014Z,18.80
2018-09-18T02:56:33.801Z,19.40
2018-09-18T02:59:02.596Z,19.43
2018-09-18T03:01:31.483Z,18.43
2018-09-18T03:04:00.297Z,17.33
2018-09-18T03:06:29.065Z,18.57
2018-09-18T03:08:57.932Z,21.30
2018-09-18T03:11:26.839Z,16.30
2018-09-18T03:13:55.541Z,17.83
2018-09-18T03:16:24.401Z,14.27
2018-09-18T03:18:53.169Z,15.27
2018-09-18T03:21:22.043Z,17.50
2018-09-18T03:23:50.768Z,16.20
2018-09-18T03:26:19.707Z,15.67
2018-09-18T03:28:48.545Z,17.53
2018-09-18T03:31:17.368Z,18.90
2018-09-18T03:33:46.140Z,14.90
2018-09-18T03:36:14.890Z,17.40
2018-09-18T03:38:43.748Z,18.73
2018-09-18T03:41:12.510Z,14.87
2018-09-18T03:43:41.327Z,17.00
2018-09-18T03:46:10.159Z,16.30
2018-09-18T03:48:38.918Z,16.03
2018-09-18T03:51:07.732Z,16.67
2018-09-18T03:53:36.523Z,14.07
2018-09-18T03:56:05.343Z,13.80
2018-09-18T03:58:34.101Z,15.23
2018-09-18T04:01:02.950Z,15.80
2018-09-18T04:03:31.884Z,16.20
2018-09-18T04:06:00.667Z,14.90
2018-09-18T04:08:29.797Z,17.37
2018-09-18T04:10:59.489Z,15.30
2018-09-18T04:13:28.321Z,15.30
2018-09-18T04:15:57.074Z,15.00
2018-09-18T04:18:27.111Z,14.83
2018-09-18T04:20:55.926Z,15.50
2018-09-18T04:23:24.800Z,15.90
2018-09-18T04:25:53.616Z,17.27
2018-09-18T04:28:22.557Z,17.03
2018-09-18T04:30:51.381Z,15.40
2018-09-18T04:33:20.217Z,17.10
2018-09-18T04:35:48.982Z,18.17
2018-09-18T04:38:18.892Z,15.50
2018-09-18T04:40:47.700Z,17.53
2018-09-18T04:43:16.480Z,14.83
2018-09-18T04:45:45.428Z,16.10
2018-09-18T04:48:14.183Z,14.27
2018-09-18T04:50:42.941Z,15.40
2018-09-18T04:53:11.697Z,17.07
2018-09-18T04:55:40.515Z,15.87
2018-09-18T04:58:09.315Z,15.80
2018-09-18T05:00:38.094Z,17.13
2018-09-18T05:03:06.901Z,17.40
2018-09-18T05:05:35.693Z,16.00
2018-09-18T05:08:04.487Z,16.90
2018-09-18T05:10:33.323Z,14.30
2018-09-18T05:13:02.198Z,16.50
2018-09-18T05:15:31.659Z,16.93
2018-09-18T05:18:00.466Z,16.23
2018-09-18T05:20:29.349Z,16.10
2018-09-18T05:22:58.196Z,15.40
2018-09-18T05:25:26.993Z,16.37
2018-09-18T05:27:55.772Z,15.50
2018-09-18T05:30:24.592Z,15.00
2018-09-18T05:32:53.366Z,15.10
2018-09-18T05:35:22.157Z,15.70
2018-09-18T05:37:51.025Z,14.73
2018-09-18T05:40:19.778Z,13.57
2018-09-18T05:42:48.567Z,12.60
2018-09-18T05:45:18.268Z,12.17
2018-09-18T05:47:47.060Z,10.97
2018-09-18T05:50:15.850Z,11.30
2018-09-18T05:52:44.631Z,12.70
2018-09-18T05:55:13.420Z,10.67
2018-09-18T05:57:42.229Z,9.40
2018-09-18T06:00:11.046Z,9.93
2018-09-18T06:02:39.914Z,9.83
2018-09-18T06:05:09.034Z,9.47
2018-09-18T06:07:38.125Z,9.77
2018-09-18T06:10:07.235Z,10.67
2018-09-18T06:12:36.258Z,10.70
2018-09-18T06:15:05.247Z,11.30
2018-09-18T06:17:34.017Z,10.13
2018-09-18T06:20:02.914Z,11.37
2018-09-18T06:22:31.788Z,9.43
2018-09-18T06:25:00.626Z,8.53
2018-09-18T06:27:29.396Z,8.10
2018-09-18T06:29:58.204Z,8.80
2018-09-18T06:32:26.981Z,8.63
2018-09-18T06:34:55.768Z,8.10
2018-09-18T06:37:24.570Z,6.87
2018-09-18T06:39:53.366Z,7.33
2018-09-18T06:42:22.153Z,7.87
2018-09-18T06:44:50.920Z,6.90
2018-09-18T06:47:19.851Z,7.30
2018-09-18T06:49:48.619Z,8.53
2018-09-18T06:52:18.321Z,8.33
2018-09-18T06:54:47.093Z,7.70
2018-09-18T06:57:15.905Z,7.90
2018-09-18T06:59:44.678Z,7.70
2018-09-18T07:02:13.500Z,7.67
2018-09-18T07:04:42.337Z,7.47
2018-09-18T07:07:11.132Z,6.70
2018-09-18T07:09:39.924Z,7.80
2018-09-18T07:12:08.735Z,6.77
2018-09-18T07:14:37.515Z,6.53
2018-09-18T07:17:06.333Z,6.70
2018-09-18T07:19:35.130Z,6.30
2018-09-18T07:22:03.960Z,6.63
2018-09-18T07:24:32.752Z,6.33
2018-09-18T07:27:01.620Z,7.07
2018-09-18T07:29:30.429Z,6.67
2018-09-18T07:31:59.156Z,7.40
2018-09-18T07:34:27.914Z,6.77
2018-09-18T07:36:56.669Z,6.60
2018-09-18T07:39:25.472Z,7.30
2018-09-18T07:41:54.233Z,6.87
2018-09-18T07:44:23.046Z,6.10
2018-09-18T07:46:51.832Z,6.80
2018-09-18T07:49:20.629Z,7.27
2018-09-18T07:51:49.391Z,6.03
2018-09-18T07:54:18.225Z,6.53
2018-09-18T07:56:47.089Z,6.20
2018-09-18T07:59:15.853Z,5.13
2018-09-18T08:01:44.701Z,4.30
2018-09-18T08:04:13.480Z,4.70
2018-09-18T08:06:42.317Z,4.10
2018-09-18T08:09:11.657Z,3.87
2018-09-18T08:11:40.588Z,4.30
2018-09-18T08:14:09.380Z,4.13
2018-09-18T08:16:38.165Z,3.80
2018-09-18T08:19:07.062Z,4.70
2018-09-18T08:21:35.809Z,4.60
2018-09-18T08:24:05.017Z,3.80
2018-09-18T08:26:33.866Z,3.80
2018-09-18T08:29:02.681Z,4.00
2018-09-18T08:31:31.453Z,4.03
2018-09-18T08:34:00.802Z,4.30
2018-09-18T08:36:29.950Z,3.77
2018-09-18T08:38:58.734Z,3.50
2018-09-18T08:41:27.606Z,4.00
2018-09-18T08:43:56.382Z,3.13
2018-09-18T08:46:25.202Z,3.30
2018-09-18T08:48:56.492Z,3.40
2018-09-18T08:51:25.621Z,3.50
2018-09-18T08:53:54.398Z,3.90
2018-09-18T08:56:23.176Z,3.90
2018-09-18T08:58:52.222Z,3.77
2018-09-18T09:01:20.999Z,3.20
2018-09-18T09:03:49.815Z,4.07
2018-09-18T09:06:18.635Z,3.43
2018-09-18T09:08:47.429Z,3.40
2018-09-18T09:11:16.254Z,3.20
2018-09-18T09:13:45.071Z,3.70
2018-09-18T09:16:13.959Z,2.90
2018-09-18T09:18:42.759Z,4.40
2018-09-18T09:21:11.632Z,3.67
2018-09-18T09:23:40.336Z,3.20
2018-09-18T09:26:09.127Z,4.63
2018-09-18T09:28:37.973Z,3.20
2018-09-18T09:31:06.787Z,3.60
2018-09-18T09:33:35.638Z,3.70
2018-09-18T09:36:04.393Z,3.73
2018-09-18T09:38:33.221Z,3.43
2018-09-18T09:41:01.967Z,3.57
2018-09-18T09:43:31.098Z,3.53
2018-09-18T09:45:59.841Z,3.53
2018-09-18T09:48:33.029Z,3.77
2018-09-18T09:51:02.684Z,3.43
2018-09-18T09:53:31.455Z,3.60
2018-09-18T09:56:00.260Z,3.43
2018-09-18T09:58:29.062Z,3.50
2018-09-18T10:01:03.033Z,3.90
2018-09-18T10:03:32.169Z,3.83
2018-09-18T10:06:00.936Z,4.17
2018-09-18T10:08:29.715Z,3.47
2018-09-18T10:10:58.767Z,3.40
2018-09-18T10:13:27.427Z,4.10
2018-09-18T10:15:56.232Z,3.70
2018-09-18T10:18:25.129Z,3.77
2018-09-18T10:20:53.921Z,3.33
2018-09-18T10:23:22.705Z,3.93
2018-09-18T10:25:51.581Z,3.43
2018-09-18T10:28:20.343Z,3.90
2018-09-18T10:30:49.168Z,4.10
2018-09-18T10:33:17.967Z,4.37
2018-09-18T10:35:46.763Z,3.97
2018-09-18T10:38:15.521Z,3.60
2018-09-18T10:40:44.314Z,4.10
2018-09-18T10:43:13.097Z,4.00
2018-09-18T10:45:42.075Z,3.70
2018-09-18T10:48:10.856Z,3.57
2018-09-18T10:50:39.660Z,4.40
2018-09-18T10:53:08.465Z,4.20
2018-09-18T10:55:37.273Z,4.33
2018-09-18T10:58:06.440Z,4.07
2018-09-18T11:00:35.531Z,3.97
2018-09-18T11:03:04.323Z,4.70
2018-09-18T11:05:33.178Z,4.13
2018-09-18T11:08:01.988Z,4.10
2018-09-18T11:10:30.735Z,4.30
2018-09-18T11:12:59.608Z,3.97
2018-09-18T11:15:28.498Z,4.33
2018-09-18T11:17:57.428Z,4.30
2018-09-18T11:20:26.177Z,3.90
2018-09-18T11:22:54.934Z,4.20
2018-09-18T11:25:23.681Z,4.90
2018-09-18T11:27:52.702Z,5.17
2018-09-18T11:30:21.574Z,4.80
2018-09-18T11:32:50.470Z,4.40
2018-09-18T11:35:19.160Z,4.73
2018-09-18T11:37:47.996Z,4.40
2018-09-18T11:40:16.846Z,5.00
2018-09-18T11:42:45.628Z,5.37
2018-09-18T11:45:14.435Z,4.37
2018-09-18T11:47:43.207Z,4.60
2018-09-18T11:50:12.017Z,4.10
2018-09-18T11:52:40.848Z,4.90
2018-09-18T11:55:09.664Z,4.87
2018-09-18T11:57:38.482Z,4.10
2018-09-18T12:00:07.422Z,4.67
2018-09-18T12:02:36.251Z,5.23
2018-09-18T12:05:05.194Z,5.67
2018-09-18T12:07:33.900Z,4.70
2018-09-18T12:10:02.829Z,4.07
2018-09-18T12:12:31.591Z,4.33
2018-09-18T12:15:00.340Z,4.00
2018-09-18T12:17:29.173Z,3.60
2018-09-18T12:19:57.970Z,3.83
2018-09-18T12:22:26.828Z,4.50
2018-09-18T12:24:55.610Z,2.90
2018-09-18T12:27:24.427Z,3.30
2018-09-18T12:29:53.397Z,3.20
2018-09-18T12:32:22.209Z,3.73
2018-09-18T12:34:50.992Z,3.90
2018-09-18T12:37:19.808Z,3.63
2018-09-18T12:39:48.581Z,3.17
2018-09-18T12:42:17.629Z,3.00
2018-09-18T12:44:47.228Z,3.70
2018-09-18T12:47:16.183Z,3.03
2018-09-18T12:49:45.144Z,3.03
2018-09-18T12:52:18.030Z,3.30
2018-09-18T12:54:46.993Z,3.00
2018-09-18T12:57:16.655Z,3.07
2018-09-18T12:59:45.740Z,3.60
2018-09-18T13:02:15.047Z,3.07
2018-09-18T13:04:50.456Z,3.77
2018-09-18T13:07:20.328Z,3.73
2018-09-18T13:09:49.159Z,3.40
2018-09-18T13:12:24.446Z,3.30
2018-09-18T13:14:53.263Z,3.07
2018-09-18T13:17:22.243Z,2.60
2018-09-18T13:19:51.189Z,2.70
2018-09-18T13:22:19.967Z,3.17
2018-09-18T13:24:48.986Z,3.03
2018-09-18T13:27:17.801Z,2.33
2018-09-18T13:29:46.565Z,2.73
2018-09-18T13:32:15.424Z,2.53
2018-09-18T13:34:44.197Z,2.57
2018-09-18T13:37:12.921Z,2.33
2018-09-18T13:39:41.736Z,2.40
2018-09-18T13:42:10.554Z,2.63
2018-09-18T13:44:39.305Z,2.40
2018-09-18T13:47:08.169Z,2.73
2018-09-18T13:49:37.005Z,2.30
2018-09-18T13:52:05.806Z,2.37
2018-09-18T13:54:34.592Z,2.20
2018-09-18T13:57:03.360Z,2.53
2018-09-18T13:59:32.218Z,2.90
2018-09-18T14:02:01.029Z,2.67
2018-09-18T14:04:29.871Z,1.90
2018-09-18T14:06:58.776Z,2.53
2018-09-18T14:09:27.620Z,2.73
2018-09-18T14:11:56.438Z,2.80
2018-09-18T14:14:25.298Z,3.10
2018-09-18T14:16:54.043Z,2.43
2018-09-18T14:19:22.834Z,2.80
2018-09-18T14:21:51.565Z,2.60
2018-09-18T14:24:20.404Z,2.73
2018-09-18T14:26:49.156Z,2.80
2018-09-18T14:29:17.970Z,2.27
2018-09-18T14:31:46.761Z,2.03
2018-09-18T14:34:15.556Z,2.57
2018-09-18T14:36:44.319Z,1.90
2018-09-18T14:39:13.109Z,2.40
2018-09-18T14:41:42.096Z,2.23
2018-09-18T14:44:10.921Z,2.70
2018-09-18T14:46:40.702Z,2.73
2018-09-18T14:49:16.598Z,2.27
2018-09-18T14:51:45.458Z,2.80
2018-09-18T14:54:14.308Z,2.37
2018-09-18T14:56:43.132Z,2.13
2018-09-18T14:59:11.982Z,2.37
2018-09-18T15:01:40.729Z,2.40
2018-09-18T15:04:09.517Z,2.80
2018-09-18T15:06:38.330Z,3.63
2018-09-18T15:09:08.919Z,2.40
2018-09-18T15:11:37.728Z,2.50
2018-09-18T15:14:06.682Z,2.50
2018-09-18T15:16:35.937Z,2.77
2018-09-18T15:19:05.544Z,2.73
2018-09-18T15:21:36.468Z,2.73
2018-09-18T15:24:05.367Z,2.50
2018-09-18T15:26:35.676Z,2.50
2018-09-18T15:29:04.956Z,2.53
2018-09-18T15:31:37.602Z,2.50
2018-09-18T15:34:07.728Z,2.47
2018-09-18T15:36:36.985Z,2.47
2018-09-18T15:39:09.058Z,2.60
2018-09-18T15:41:38.760Z,2.67
2018-09-18T15:44:07.654Z,2.90
2018-09-18T15:46:36.767Z,2.47
2018-09-18T15:49:05.639Z,2.50
2018-09-18T15:51:34.433Z,2.30
2018-09-18T15:54:04.437Z,2.80
2018-09-18T15:56:37.698Z,2.67
2018-09-18T15:59:07.197Z,2.47
2018-09-18T16:01:37.198Z,2.97
2018-09-18T16:04:06.163Z,2.73
2018-09-18T16:06:36.568Z,2.63
2018-09-18T16:09:12.077Z,2.80
2018-09-18T16:11:44.266Z,3.00
2018-09-18T16:14:14.827Z,3.30
2018-09-18T16:16:44.152Z,2.60
2018-09-18T16:19:14.688Z,3.10
2018-09-18T16:21:45.197Z,3.50
2018-09-18T16:24:13.987Z,2.93
2018-09-18T16:26:43.236Z,3.03
2018-09-18T16:29:12.009Z,2.60
2018-09-18T16:31:41.265Z,3.13
2018-09-18T16:34:10.082Z,4.23
2018-09-18T16:36:39.033Z,2.70
2018-09-18T16:39:07.797Z,2.80
2018-09-18T16:41:36.633Z,3.40
2018-09-18T16:44:06.123Z,2.90
2018-09-18T16:46:34.879Z,2.87
2018-09-18T16:49:04.676Z,2.60
2018-09-18T16:51:36.425Z,3.47
2018-09-18T16:54:05.330Z,3.23
2018-09-18T16:56:34.124Z,3.53
2018-09-18T16:59:02.945Z,3.50
2018-09-18T17:01:31.736Z,3.87
2018-09-18T17:04:00.619Z,3.33
2018-09-18T17:06:29.478Z,3.47
2018-09-18T17:08:58.341Z,3.80
2018-09-18T17:11:27.150Z,3.60
2018-09-18T17:13:55.946Z,3.90
2018-09-18T17:16:24.934Z,4.23
2018-09-18T17:18:53.798Z,3.60
2018-09-18T17:21:22.607Z,3.73
2018-09-18T17:23:51.426Z,3.80
2018-09-18T17:26:20.294Z,4.43
2018-09-18T17:28:49.885Z,3.97
2018-09-18T17:31:18.454Z,3.80
2018-09-18T17:33:47.385Z,4.43
2018-09-18T17:36:16.238Z,4.27
2018-09-18T17:38:47.133Z,3.83
2018-09-18T17:41:18.252Z,3.90
2018-09-18T17:43:47.021Z,4.20
2018-09-18T17:46:15.885Z,3.80
2018-09-18T17:48:44.620Z,4.83
2018-09-18T17:51:13.575Z,4.97
2018-09-18T17:53:42.380Z,4.90
2018-09-18T17:56:11.272Z,5.20
2018-09-18T17:58:40.082Z,5.43
2018-09-18T18:01:08.951Z,3.47
2018-09-18T18:03:37.734Z,4.43
2018-09-18T18:06:06.571Z,4.67
2018-09-18T18:08:35.365Z,3.57
2018-09-18T18:11:04.308Z,4.30
2018-09-18T18:13:34.084Z,4.57
2018-09-18T18:16:03.502Z,4.30
2018-09-18T18:18:32.301Z,4.30
2018-09-18T18:21:01.509Z,4.30
2018-09-18T18:23:31.946Z,4.07
2018-09-18T18:26:01.573Z,4.20
2018-09-18T18:28:30.390Z,4.73
2018-09-18T18:30:59.221Z,4.40
2018-09-18T18:33:28.496Z,4.70
2018-09-18T18:35:58.631Z,4.17
2018-09-18T18:38:28.059Z,4.33
2018-09-18T18:41:03.485Z,3.50
2018-09-18T18:43:34.682Z,3.70
2018-09-18T18:46:06.284Z,3.60
2018-09-18T18:48:35.841Z,3.63
2018-09-18T18:51:05.571Z,3.40
2018-09-18T18:53:35.365Z,3.80
2018-09-18T18:56:06.079Z,3.60
2018-09-18T18:58:34.809Z,3.30
2018-09-18T19:01:05.916Z,3.50
2018-09-18T19:03:34.904Z,4.20
2018-09-18T19:06:03.862Z,3.50
2018-09-18T19:08:32.659Z,4.07
2018-09-18T19:11:01.447Z,3.60
2018-09-18T19:13:30.564Z,4.40
2018-09-18T19:15:59.444Z,3.70
2018-09-18T19:18:28.382Z,3.97
2018-09-18T19:20:57.221Z,4.00
2018-09-18T19:23:27.579Z,3.50
2018-09-18T19:25:56.933Z,3.60
2018-09-18T19:28:26.879Z,4.00
2018-09-18T19:30:55.825Z,3.40
2018-09-18T19:33:24.954Z,3.40
2018-09-18T19:35:54.092Z,3.60
2018-09-18T19:38:23.065Z,3.53
2018-09-18T19:40:53.174Z,4.20
2018-09-18T19:43:23.619Z,4.07
2018-09-18T19:45:53.763Z,3.90
2018-09-18T19:48:22.700Z,4.43
2018-09-18T19:50:51.587Z,3.80
2018-09-18T19:53:21.781Z,3.50
2018-09-18T19:55:51.330Z,4.80
2018-09-18T19:58:20.105Z,3.73
2018-09-18T20:00:48.877Z,3.80
2018-09-18T20:03:18.813Z,4.50
2018-09-18T20:05:50.196Z,3.33
2018-09-18T20:08:19.027Z,4.10
2018-09-18T20:10:48.487Z,3.80
2018-09-18T20:13:17.805Z,3.80
2018-09-18T20:15:46.740Z,3.70
2018-09-18T20:18:15.541Z,4.50
2018-09-18T20:20:44.348Z,3.70
2018-09-18T20:23:13.373Z,3.60
2018-09-18T20:25:42.156Z,4.17
2018-09-18T20:28:10.960Z,4.40
2018-09-18T20:30:39.752Z,4.80
2018-09-18T20:33:08.548Z,4.13
2018-09-18T20:35:37.389Z,4.80
2018-09-18T20:38:06.285Z,4.43
2018-09-18T20:40:35.088Z,4.70
2018-09-18T20:43:03.836Z,4.60
2018-09-18T20:45:32.645Z,4.27
2018-09-18T20:48:01.450Z,4.70
2018-09-18T20:50:30.320Z,4.73
2018-09-18T20:52:59.066Z,4.23
2018-09-18T20:55:27.828Z,4.00
2018-09-18T20:57:56.701Z,5.00
2018-09-18T21:00:25.501Z,4.23
2018-09-18T21:02:54.277Z,4.03
2018-09-18T21:05:23.116Z,3.87
2018-09-18T21:07:51.974Z,3.60
2018-09-18T21:10:20.762Z,3.20
2018-09-18T21:12:49.528Z,3.33
2018-09-18T21:15:18.356Z,3.73
2018-09-18T21:17:47.144Z,4.60
2018-09-18T21:20:15.987Z,4.13
2018-09-18T21:22:45.691Z,4.30
2018-09-18T21:25:18.125Z,4.10
2018-09-18T21:27:47.821Z,4.13
2018-09-18T21:30:17.442Z,4.13
2018-09-18T21:32:46.286Z,5.23
2018-09-18T21:35:15.059Z,3.90
2018-09-18T21:37:43.840Z,3.57
2018-09-18T21:40:12.742Z,3.50
2018-09-18T21:42:41.464Z,4.17
2018-09-18T21:45:10.287Z,3.87
2018-09-18T21:47:39.027Z,3.80
2018-09-18T21:50:07.908Z,3.03
2018-09-18T21:52:36.681Z,3.20
2018-09-18T21:55:05.500Z,4.03
2018-09-18T21:57:34.452Z,3.30
2018-09-18T22:00:03.348Z,3.30
2018-09-18T22:02:32.173Z,3.77
2018-09-18T22:05:01.000Z,3.20
2018-09-18T22:07:29.827Z,4.80
2018-09-18T22:09:58.602Z,3.63
2018-09-18T22:12:27.522Z,3.90
2018-09-18T22:14:56.220Z,2.90
2018-09-18T22:17:24.971Z,3.80
2018-09-18T22:19:53.983Z,3.13
2018-09-18T22:22:22.868Z,2.47
2018-09-18T22:24:51.587Z,3.13
2018-09-18T22:27:20.368Z,3.00
2018-09-18T22:29:49.172Z,4.50
2018-09-18T22:32:17.899Z,2.90
2018-09-18T22:34:46.645Z,3.00
2018-09-18T22:37:15.451Z,3.47
2018-09-18T22:39:44.216Z,4.47
2018-09-18T22:42:13.101Z,4.73
2018-09-18T22:44:41.842Z,4.33
2018-09-18T22:47:10.645Z,3.80
2018-09-18T22:49:39.404Z,4.43
2018-09-18T22:52:08.189Z,3.40
2018-09-18T22:54:37.068Z,3.43
2018-09-18T22:57:05.973Z,3.80
2018-09-18T22:59:34.757Z,3.23
2018-09-18T23:02:03.753Z,4.23
2018-09-18T23:04:32.712Z,2.73
2018-09-18T23:07:01.562Z,3.40
2018-09-18T23:09:30.354Z,3.07
2018-09-18T23:11:59.146Z,3.77
2018-09-18T23:14:28.187Z,3.60
2018-09-18T23:16:57.012Z,3.07
2018-09-18T23:19:25.946Z,4.50
2018-09-18T23:21:54.699Z,4.27
2018-09-18T23:24:23.489Z,3.70
2018-09-18T23:26:52.255Z,3.20
2018-09-18T23:29:21.029Z,2.97
2018-09-18T23:31:49.858Z,3.50
2018-09-18T23:34:18.890Z,3.33
2018-09-18T23:36:47.680Z,3.07
2018-09-18T23:39:16.418Z,2.67
2018-09-18T23:41:45.226Z,3.93
2018-09-18T23:44:13.995Z,3.70
2018-09-18T23:46:43.049Z,3.90
2018-09-18T23:49:11.829Z,3.50
2018-09-18T23:51:40.612Z,3.20
2018-09-18T23:54:09.367Z,3.23
2018-09-18T23:56:38.183Z,4.70
2018-09-18T23:59:07.030Z,3.10
